Time;durP1;ratioP1;P1;durP2;ratioP2;P2;SDS_P1;SDS_P2;PMS_P1;PMS_P2;Temp;Humidity;BMP_temperature;BMP_pressure;BME280_temperature;BME280_humidity;BME280_pressure;Samples;Min_cycle;Max_cycle;Signal;HPM_P1;HPM_P2
2020/12/07 00:01:36;;;;;;;8.03;7.30;;;1.70;99.90;;;;;;5043097;28;20199;-70
2020/12/07 00:04:01;;;;;;;9.13;8.23;;;1.60;99.90;;;;;;5043210;28;20196;-69
2020/12/07 00:06:27;;;;;;;9.17;8.27;;;1.60;99.90;;;;;;5036921;28;20196;-69
2020/12/07 00:08:52;;;;;;;10.03;9.03;;;1.60;99.90;;;;;;5037477;28;20223;-69
2020/12/07 00:11:18;;;;;;;9.00;8.10;;;1.70;99.90;;;;;;5040465;28;20713;-69
2020/12/07 00:13:44;;;;;;;9.87;8.03;;;1.70;99.90;;;;;;5046048;28;20214;-69
2020/12/07 00:16:09;;;;;;;8.13;7.43;;;1.70;99.90;;;;;;5034058;28;20594;-69
2020/12/07 00:18:36;;;;;;;8.03;7.33;;;1.70;99.90;;;;;;5043419;28;20213;-69
2020/12/07 00:21:02;;;;;;;7.97;6.63;;;1.80;99.90;;;;;;5039615;28;20191;-69
2020/12/07 00:23:28;;;;;;;7.63;6.93;;;1.80;99.90;;;;;;5040330;28;20175;-69
2020/12/07 00:25:53;;;;;;;7.97;7.27;;;1.80;99.90;;;;;;5047526;28;20218;-69
2020/12/07 00:28:19;;;;;;;8.53;7.73;;;1.80;99.90;;;;;;5043584;28;20260;-69
2020/12/07 00:30:46;;;;;;;7.27;6.57;;;1.80;99.90;;;;;;5040349;28;20781;-69
2020/12/07 00:33:12;;;;;;;8.00;7.30;;;1.80;99.90;;;;;;5037406;28;20187;-69
2020/12/07 00:35:37;;;;;;;7.73;6.93;;;1.80;99.90;;;;;;5038609;28;20215;-69
2020/12/07 00:38:03;;;;;;;7.60;6.90;;;1.70;99.90;;;;;;5041890;28;20885;-70
2020/12/07 00:40:28;;;;;;;8.13;7.37;;;1.80;99.90;;;;;;5043118;28;20654;-69
2020/12/07 00:42:54;;;;;;;8.43;7.63;;;1.70;99.90;;;;;;5039601;28;20208;-69
2020/12/07 00:45:19;;;;;;;8.73;7.90;;;1.70;99.90;;;;;;5042520;28;20192;-69
2020/12/07 00:47:45;;;;;;;7.73;7.03;;;1.70;99.90;;;;;;5042178;28;20187;-69
2020/12/07 00:50:10;;;;;;;7.90;7.20;;;1.70;99.90;;;;;;5042752;28;20210;-69
2020/12/07 00:52:37;;;;;;;8.10;7.33;;;1.70;99.90;;;;;;5046552;28;20599;-69
2020/12/07 00:55:03;;;;;;;8.00;7.20;;;1.70;99.90;;;;;;5044284;28;20207;-69
2020/12/07 00:57:29;;;;;;;7.57;6.87;;;1.70;99.90;;;;;;5046837;28;20246;-69
2020/12/07 00:59:55;;;;;;;6.97;6.37;;;1.70;99.90;;;;;;5047519;28;20207;-69
2020/12/07 01:02:20;;;;;;;7.57;6.97;;;1.70;99.90;;;;;;5044129;28;20258;-69
2020/12/07 01:04:46;;;;;;;7.47;6.77;;;1.80;99.90;;;;;;5044590;28;20785;-69
2020/12/07 01:07:11;;;;;;;7.90;7.10;;;1.80;99.90;;;;;;5042560;28;20245;-69
2020/12/07 01:09:37;;;;;;;8.47;7.63;;;1.70;99.90;;;;;;5045169;28;20572;-68
2020/12/07 01:12:03;;;;;;;8.80;7.90;;;1.70;99.90;;;;;;5044819;28;20188;-69
2020/12/07 01:14:28;;;;;;;8.50;7.70;;;1.70;99.90;;;;;;5047998;28;20228;-69
2020/12/07 01:16:54;;;;;;;7.97;7.17;;;1.70;99.90;;;;;;5044891;28;20634;-68
2020/12/07 01:19:22;;;;;;;8.70;7.80;;;1.70;99.90;;;;;;5052389;28;20201;-70
2020/12/07 01:21:47;;;;;;;8.30;7.50;;;1.70;99.90;;;;;;5058880;28;20182;-68
2020/12/07 01:24:13;;;;;;;8.90;8.10;;;1.70;99.90;;;;;;5053237;28;20259;-69
2020/12/07 01:26:39;;;;;;;9.20;8.30;;;1.60;99.90;;;;;;5053842;28;20190;-69
2020/12/07 01:29:06;;;;;;;9.77;8.87;;;1.60;99.90;;;;;;5045294;28;20199;-68
2020/12/07 01:31:32;;;;;;;9.20;8.17;;;1.60;99.90;;;;;;5042582;28;20687;-69
2020/12/07 01:33:58;;;;;;;7.93;7.23;;;1.60;99.90;;;;;;5050896;28;20205;-69
2020/12/07 01:36:24;;;;;;;7.93;7.23;;;1.60;99.90;;;;;;5045664;28;20269;-68
2020/12/07 01:38:50;;;;;;;8.70;7.80;;;1.60;99.90;;;;;;5045430;28;20254;-69
2020/12/07 01:41:15;;;;;;;6.97;6.37;;;1.60;99.90;;;;;;5025514;28;20199;-69
2020/12/07 01:43:41;;;;;;;7.30;6.57;;;1.60;99.90;;;;;;5042910;28;20188;-69
2020/12/07 01:46:07;;;;;;;8.37;7.57;;;1.60;99.90;;;;;;5045114;28;20186;-68
2020/12/07 01:48:33;;;;;;;8.17;7.40;;;1.60;99.90;;;;;;5050118;28;21016;-69
2020/12/07 01:51:00;;;;;;;7.93;7.17;;;1.60;99.90;;;;;;5046793;28;20190;-68
2020/12/07 01:53:27;;;;;;;8.47;7.47;;;1.60;99.90;;;;;;5049559;28;20180;-68
2020/12/07 01:55:53;;;;;;;8.73;7.10;;;1.60;99.90;;;;;;5041949;28;20211;-69
2020/12/07 01:58:19;;;;;;;7.70;7.00;;;1.60;99.90;;;;;;5046741;28;20252;-68
2020/12/07 02:00:45;;;;;;;8.57;7.77;;;1.70;99.90;;;;;;5042142;28;20178;-68
2020/12/07 02:03:11;;;;;;;8.07;7.37;;;1.70;99.90;;;;;;5035634;28;20194;-68
2020/12/07 02:05:40;;;;;;;7.10;6.40;;;1.70;99.90;;;;;;5033180;28;20184;-68
2020/12/07 02:08:15;;;;;;;8.20;7.50;;;1.80;99.90;;;;;;5035813;28;20172;-68
2020/12/07 02:10:42;;;;;;;7.60;6.90;;;1.80;99.90;;;;;;5048763;28;20192;-69
2020/12/07 02:13:07;;;;;;;7.67;7.00;;;1.80;99.90;;;;;;5055461;28;20705;-68
2020/12/07 02:15:33;;;;;;;8.87;8.07;;;1.80;99.90;;;;;;5043016;28;20245;-68
2020/12/07 02:18:02;;;;;;;7.97;7.27;;;1.70;99.90;;;;;;5045409;28;20171;-68
2020/12/07 02:20:28;;;;;;;7.30;6.60;;;1.70;99.90;;;;;;5035670;28;20179;-68
2020/12/07 02:22:54;;;;;;;8.70;7.80;;;1.70;99.90;;;;;;5046490;28;20180;-68
2020/12/07 02:25:20;;;;;;;5.80;5.30;;;1.70;99.90;;;;;;5049604;28;20186;-69
2020/12/07 02:27:50;;;;;;;7.07;6.47;;;1.80;99.90;;;;;;5026422;28;20580;-69
2020/12/07 02:30:21;;;;;;;8.03;7.23;;;1.80;99.90;;;;;;5044362;28;20577;-69
2020/12/07 02:32:48;;;;;;;7.97;7.27;;;1.80;99.90;;;;;;5040509;28;20182;-69
2020/12/07 02:35:14;;;;;;;7.47;6.67;;;1.70;99.90;;;;;;5026176;28;20217;-69
2020/12/07 02:37:42;;;;;;;8.07;7.30;;;1.70;99.90;;;;;;5039827;28;20275;-69
2020/12/07 02:40:08;;;;;;;7.13;6.47;;;1.70;99.90;;;;;;5048847;28;20612;-69
2020/12/07 02:42:36;;;;;;;5.37;4.87;;;1.70;99.90;;;;;;5039479;28;20183;-69
2020/12/07 02:45:06;;;;;;;7.33;6.63;;;1.80;99.90;;;;;;5047279;28;20249;-69
2020/12/07 02:47:32;;;;;;;6.73;6.10;;;1.80;99.90;;;;;;5037539;28;20657;-69
2020/12/07 02:49:58;;;;;;;6.03;5.53;;;1.80;99.90;;;;;;5046783;28;20211;-68
2020/12/07 02:52:26;;;;;;;6.90;6.30;;;1.80;99.90;;;;;;5037069;28;20703;-68
2020/12/07 02:54:53;;;;;;;6.93;6.23;;;1.80;99.90;;;;;;5045306;28;20692;-69
2020/12/07 02:57:19;;;;;;;7.30;6.43;;;1.80;99.90;;;;;;5042054;28;20186;-69
2020/12/07 02:59:45;;;;;;;6.90;6.30;;;1.80;99.90;;;;;;5041468;28;20198;-69
2020/12/07 03:02:11;;;;;;;7.60;6.80;;;1.80;99.90;;;;;;5044725;28;20183;-69
2020/12/07 03:04:37;;;;;;;6.93;6.27;;;1.80;99.90;;;;;;5041123;28;20604;-69
2020/12/07 03:07:03;;;;;;;6.70;6.10;;;1.80;99.90;;;;;;5049456;28;20194;-69
2020/12/07 03:09:28;;;;;;;6.70;6.10;;;1.80;99.90;;;;;;5041800;28;20216;-69
2020/12/07 03:11:54;;;;;;;7.33;6.70;;;1.80;99.90;;;;;;5047302;28;20187;-69
2020/12/07 03:14:19;;;;;;;7.80;6.67;;;1.80;99.90;;;;;;5038122;28;20608;-69
2020/12/07 03:16:45;;;;;;;6.50;5.90;;;1.80;99.90;;;;;;5039970;28;20186;-69
2020/12/07 03:19:11;;;;;;;6.93;6.23;;;1.80;99.90;;;;;;5042936;28;20197;-69
2020/12/07 03:21:37;;;;;;;6.57;5.87;;;1.90;99.90;;;;;;5029823;28;20183;-69
2020/12/07 03:24:05;;;;;;;7.20;6.50;;;1.90;99.90;;;;;;5046265;28;20214;-69
2020/12/07 03:26:32;;;;;;;7.33;6.63;;;1.90;99.90;;;;;;5046112;28;20181;-69
2020/12/07 03:28:58;;;;;;;5.90;5.40;;;1.90;99.90;;;;;;5039097;28;20195;-69
2020/12/07 03:31:24;;;;;;;5.67;5.17;;;1.90;99.90;;;;;;5044072;28;20694;-69
2020/12/07 03:33:50;;;;;;;9.27;5.23;;;2.00;99.90;;;;;;5019566;28;20274;-69
2020/12/07 03:36:16;;;;;;;6.27;5.63;;;2.00;99.90;;;;;;5043765;28;20230;-69
2020/12/07 03:38:41;;;;;;;6.40;5.80;;;1.90;99.90;;;;;;5041940;28;20204;-69
2020/12/07 03:41:07;;;;;;;6.60;6.00;;;1.90;99.90;;;;;;5042028;28;20215;-69
2020/12/07 03:43:32;;;;;;;6.10;4.93;;;2.00;99.90;;;;;;5040223;28;20268;-69
2020/12/07 03:45:58;;;;;;;9.07;5.17;;;2.00;99.90;;;;;;5041704;28;20199;-69
2020/12/07 03:48:23;;;;;;;5.87;5.30;;;2.00;99.90;;;;;;5036686;28;20206;-67
2020/12/07 03:50:49;;;;;;;7.10;5.97;;;2.00;99.90;;;;;;5058185;28;20180;-67
2020/12/07 03:53:15;;;;;;;7.07;6.37;;;2.10;99.90;;;;;;5050466;28;20187;-68
2020/12/07 03:55:40;;;;;;;7.70;6.47;;;2.00;99.90;;;;;;5041962;28;20210;-67
2020/12/07 03:58:06;;;;;;;7.73;6.40;;;2.00;99.90;;;;;;5046587;28;20289;-67
2020/12/07 04:00:31;;;;;;;7.30;5.80;;;2.10;99.90;;;;;;5040013;28;20658;-68
2020/12/07 04:02:57;;;;;;;5.53;5.03;;;2.10;99.90;;;;;;5042508;28;20189;-69
2020/12/07 04:05:31;;;;;;;6.23;5.73;;;2.10;99.90;;;;;;5043168;28;20615;-69
2020/12/07 04:07:56;;;;;;;6.00;5.43;;;2.20;99.90;;;;;;5022415;28;20674;-68
2020/12/07 04:10:22;;;;;;;4.90;4.50;;;2.10;99.90;;;;;;5044075;28;20190;-69
2020/12/07 04:12:47;;;;;;;6.40;5.80;;;2.10;99.90;;;;;;5046852;28;20179;-68
2020/12/07 04:15:13;;;;;;;9.20;6.30;;;2.20;99.90;;;;;;5044737;28;20210;-68
2020/12/07 04:17:39;;;;;;;7.77;6.43;;;2.20;99.90;;;;;;5045085;28;20188;-68
2020/12/07 04:20:04;;;;;;;7.70;6.67;;;2.10;99.90;;;;;;5039949;28;20835;-70
2020/12/07 04:22:30;;;;;;;7.83;6.10;;;2.10;99.90;;;;;;5043266;28;20184;-70
2020/12/07 04:24:55;;;;;;;6.80;6.00;;;2.10;99.90;;;;;;5039142;28;20535;-70
2020/12/07 04:27:21;;;;;;;8.33;7.43;;;2.10;99.90;;;;;;5040799;28;20188;-68
2020/12/07 04:29:47;;;;;;;8.90;6.43;;;2.20;99.90;;;;;;5042529;28;20235;-70
2020/12/07 04:32:14;;;;;;;6.80;5.90;;;2.20;99.90;;;;;;5043387;28;20204;-71
2020/12/07 04:34:39;;;;;;;6.13;5.60;;;2.20;99.90;;;;;;5047158;28;20640;-71
2020/12/07 04:37:05;;;;;;;7.47;6.40;;;2.20;99.90;;;;;;5043624;28;20274;-71
2020/12/07 04:39:30;;;;;;;7.13;5.27;;;2.20;99.90;;;;;;5038597;28;20206;-71
2020/12/07 04:41:57;;;;;;;10.53;6.60;;;2.20;99.90;;;;;;5035293;28;20266;-71
2020/12/07 04:44:23;;;;;;;8.20;5.60;;;2.20;99.90;;;;;;5049738;28;20651;-71
2020/12/07 04:46:50;;;;;;;7.33;5.40;;;2.20;99.90;;;;;;5038543;28;20192;-71
2020/12/07 04:49:16;;;;;;;11.65;8.77;;;2.20;99.90;;;;;;5036366;28;20428;-71
2020/12/07 04:51:42;;;;;;;6.60;6.00;;;2.20;99.90;;;;;;5037377;28;20191;-71
2020/12/07 04:54:12;;;;;;;10.33;6.27;;;2.20;99.90;;;;;;5035687;28;20577;-71
2020/12/07 04:56:38;;;;;;;9.27;6.77;;;2.20;99.90;;;;;;5045281;28;20187;-69
2020/12/07 04:59:03;;;;;;;8.83;5.90;;;2.20;99.90;;;;;;5043162;28;20196;-69
2020/12/07 05:01:29;;;;;;;6.60;5.67;;;2.20;99.90;;;;;;5035210;28;20176;-70
2020/12/07 05:03:55;;;;;;;6.40;5.50;;;2.20;99.90;;;;;;5026871;28;20539;-69
2020/12/07 05:06:21;;;;;;;7.20;5.50;;;2.20;99.90;;;;;;5037323;28;20177;-70
2020/12/07 05:08:47;;;;;;;8.33;6.10;;;2.20;99.90;;;;;;5032664;28;20694;-70
2020/12/07 05:11:13;;;;;;;13.13;5.83;;;2.20;99.90;;;;;;5040120;28;20187;-70
2020/12/07 05:13:43;;;;;;;9.57;6.23;;;2.20;99.90;;;;;;5031805;28;20208;-69
2020/12/07 05:16:10;;;;;;;8.23;6.93;;;2.20;99.90;;;;;;5040354;28;20269;-70
2020/12/07 05:18:38;;;;;;;8.67;6.93;;;2.10;99.90;;;;;;5030816;28;20302;-69
2020/12/07 05:21:04;;;;;;;12.17;6.70;;;2.10;99.90;;;;;;5040464;28;20173;-71
2020/12/07 05:23:42;;;;;;;9.20;6.03;;;2.10;99.90;;;;;;5038167;28;20188;-71
2020/12/07 05:26:09;;;;;;;7.83;6.07;;;2.20;99.90;;;;;;5038430;28;20180;-71
2020/12/07 05:28:43;;;;;;;7.53;6.83;;;2.20;99.90;;;;;;5045682;28;20685;-70
2020/12/07 05:31:17;;;;;;;8.03;6.43;;;2.20;99.90;;;;;;5033079;28;20175;-70
2020/12/07 05:33:45;;;;;;;8.40;7.60;;;2.20;99.90;;;;;;5034148;28;20171;-69
2020/12/07 05:36:11;;;;;;;9.03;7.43;;;2.20;99.90;;;;;;5052556;28;20207;-70
2020/12/07 05:38:37;;;;;;;8.67;7.53;;;2.20;99.90;;;;;;5044414;28;20207;-70
2020/12/07 05:41:04;;;;;;;9.20;8.30;;;2.20;99.90;;;;;;5035540;28;20257;-69
2020/12/07 05:43:33;;;;;;;10.83;8.33;;;2.20;99.90;;;;;;5041410;28;20307;-70
2020/12/07 05:46:00;;;;;;;9.43;8.20;;;2.10;99.90;;;;;;5040741;28;20716;-70
2020/12/07 05:48:31;;;;;;;8.50;7.70;;;2.10;99.90;;;;;;5040863;28;20219;-70
2020/12/07 05:51:01;;;;;;;9.70;7.73;;;2.10;99.90;;;;;;5043321;28;20183;-70
2020/12/07 05:53:27;;;;;;;11.47;8.30;;;2.10;99.90;;;;;;5038327;28;20189;-70
2020/12/07 05:55:54;;;;;;;13.80;9.70;;;2.10;99.90;;;;;;5041570;28;20243;-70
2020/12/07 05:58:27;;;;;;;11.17;8.87;;;2.00;99.90;;;;;;5050009;28;20278;-73
2020/12/07 06:00:55;;;;;;;11.03;8.17;;;2.00;99.90;;;;;;5039762;28;20172;-70
2020/12/07 06:03:21;;;;;;;9.93;8.53;;;2.00;99.90;;;;;;5039850;28;20208;-70
2020/12/07 06:05:47;;;;;;;10.10;8.70;;;2.00;99.90;;;;;;5039197;28;20593;-70
2020/12/07 06:08:31;;;;;;;10.43;8.57;;;2.00;99.90;;;;;;5043311;28;20252;-72
2020/12/07 06:11:00;;;;;;;9.43;8.47;;;2.10;99.90;;;;;;5039873;28;20243;-70
2020/12/07 06:13:27;;;;;;;11.13;9.63;;;2.00;99.90;;;;;;5034838;28;20184;-70
2020/12/07 06:15:54;;;;;;;9.57;8.57;;;2.00;99.90;;;;;;5036303;28;20196;-70
2020/12/07 06:18:25;;;;;;;10.37;8.67;;;1.90;99.90;;;;;;5026156;28;20627;-76
2020/12/07 06:21:15;;;;;;;11.03;8.43;;;1.90;99.90;;;;;;5044274;28;20179;-70
2020/12/07 06:23:42;;;;;;;11.43;7.67;;;1.90;99.90;;;;;;5040388;28;20564;-70
2020/12/07 06:26:10;;;;;;;11.93;8.93;;;1.90;99.90;;;;;;5035938;28;20176;-73
2020/12/07 06:28:38;;;;;;;11.93;8.87;;;1.90;99.90;;;;;;5024565;28;20209;-73
2020/12/07 06:31:26;;;;;;;8.80;7.80;;;1.90;99.90;;;;;;5037380;28;20191;-72
2020/12/07 06:33:53;;;;;;;8.97;8.07;;;1.90;99.90;;;;;;5034957;28;21385;-72
2020/12/07 06:36:34;;;;;;;9.13;7.87;;;1.90;99.90;;;;;;5017015;28;20192;-72
2020/12/07 06:39:03;;;;;;;11.67;8.63;;;1.90;99.90;;;;;;5042288;28;20746;-72
2020/12/07 06:41:41;;;;;;;11.10;8.60;;;1.80;99.90;;;;;;5042675;28;20217;-72
2020/12/07 06:44:11;;;;;;;9.03;7.83;;;1.80;99.90;;;;;;5043933;28;20692;-71
2020/12/07 06:46:59;;;;;;;9.83;8.83;;;1.90;99.90;;;;;;5043740;28;20206;-71
2020/12/07 06:49:53;;;;;;;10.53;9.43;;;1.90;99.90;;;;;;5028306;28;20756;-72
2020/12/07 06:52:28;;;;;;;8.93;8.03;;;1.80;99.90;;;;;;5041810;28;20288;-69
2020/12/07 06:55:26;;;;;;;12.10;8.97;;;1.90;99.90;;;;;;5050840;28;20722;-69
2020/12/07 06:57:52;;;;;;;10.70;9.60;;;1.80;99.90;;;;;;4989502;28;20284;-70
2020/12/07 07:00:27;;;;;;;13.90;9.63;;;1.80;99.90;;;;;;4990930;28;20186;-70
2020/12/07 07:02:57;;;;;;;10.67;9.23;;;1.70;99.90;;;;;;4996429;28;20195;-70
2020/12/07 07:05:31;;;;;;;11.50;9.77;;;1.70;99.90;;;;;;4992038;28;20209;-70
2020/12/07 07:07:57;;;;;;;10.83;9.83;;;1.70;99.90;;;;;;4989183;28;20217;-70
2020/12/07 07:10:23;;;;;;;12.83;10.47;;;1.70;99.90;;;;;;4990737;28;20206;-71
2020/12/07 07:12:50;;;;;;;12.67;11.33;;;1.70;99.90;;;;;;4984462;28;20288;-72
2020/12/07 07:15:16;;;;;;;14.17;12.17;;;1.70;99.90;;;;;;4991507;28;20228;-71
2020/12/07 07:17:44;;;;;;;16.00;13.20;;;1.70;99.90;;;;;;4986810;28;20220;-71
2020/12/07 07:20:11;;;;;;;15.00;12.70;;;1.80;99.90;;;;;;4991349;28;20321;-72
2020/12/07 07:22:41;;;;;;;14.30;11.63;;;1.90;99.90;;;;;;4986749;28;20189;-71
2020/12/07 07:30:21;;;;;;;15.70;13.23;;;2.20;99.90;;;;;;4981555;28;20193;-70
2020/12/07 07:32:51;;;;;;;9.33;8.43;;;2.50;99.90;;;;;;5001585;28;20223;-72
2020/12/07 07:35:20;;;;;;;8.03;7.27;;;3.10;99.90;;;;;;5040638;28;20246;-72
2020/12/07 07:37:46;;;;;;;9.40;7.03;;;3.40;99.90;;;;;;5035504;28;20536;-72
2020/12/07 07:40:14;;;;;;;7.20;6.60;;;3.80;99.90;;;;;;5045770;28;20233;-70
2020/12/07 07:42:58;;;;;;;5.57;5.07;;;4.50;99.90;;;;;;5045340;28;20549;-71
2020/12/07 07:45:30;;;;;;;5.53;5.13;;;5.60;98.30;;;;;;5038800;28;20188;-70
2020/12/07 07:48:10;;;;;;;4.73;4.33;;;6.20;97.80;;;;;;5037103;28;20547;-71
2020/12/07 07:50:56;;;;;;;6.83;5.10;;;6.40;95.30;;;;;;5037275;28;20604;-70
2020/12/07 08:13:10;;;;;;;4.47;4.07;;;9.80;75.40;;;;;;4988269;28;20188;-71
2020/12/07 08:18:05;;;;;;;5.63;4.32;;;10.10;72.10;;;;;;4983197;28;20208;-71
2020/12/07 08:20:37;;;;;;;5.13;4.57;;;10.20;72.60;;;;;;4987261;28;21110;-71
2020/12/07 08:23:07;;;;;;;5.43;3.92;;;10.40;75.80;;;;;;4984611;28;20189;-71
2020/12/07 08:26:03;;;;;;;5.60;4.43;;;10.50;73.10;;;;;;4985149;28;20189;-71
2020/12/07 08:28:40;;;;;;;3.22;2.97;;;10.90;74.40;;;;;;4892574;29;20244;-71
2020/12/07 08:31:07;;;;;;;3.47;3.17;;;11.30;62.50;;;;;;4906317;29;20187;-71
2020/12/07 08:33:38;;;;;;;3.40;3.10;;;11.50;61.30;;;;;;4937874;28;20199;-71
2020/12/07 08:36:05;;;;;;;3.13;2.83;;;11.20;62.10;;;;;;4949553;28;20207;-71
2020/12/07 08:38:40;;;;;;;3.10;2.80;;;11.40;61.00;;;;;;4948687;28;20294;-71
2020/12/07 08:41:06;;;;;;;5.22;4.72;;;11.80;60.50;;;;;;4934105;28;20225;-72
2020/12/07 08:43:32;;;;;;;3.97;2.80;;;12.30;58.90;;;;;;4954318;28;20969;-71
2020/12/07 08:45:58;;;;;;;4.25;2.88;;;13.10;55.00;;;;;;4953838;28;20840;-73
2020/12/07 08:48:23;;;;;;;3.33;2.72;;;13.40;54.70;;;;;;4947843;28;20240;-73
2020/12/07 08:50:49;;;;;;;3.85;3.47;;;13.80;52.60;;;;;;4953274;28;20741;-73
2020/12/07 08:53:15;;;;;;;2.90;2.65;;;13.70;52.70;;;;;;4950552;28;20187;-71
2020/12/07 08:55:40;;;;;;;2.90;2.63;;;13.20;51.40;;;;;;4944778;28;20773;-71
2020/12/07 08:58:06;;;;;;;3.65;3.25;;;13.40;51.70;;;;;;4950689;28;20206;-73
2020/12/07 09:00:31;;;;;;;3.15;2.80;;;12.40;52.60;;;;;;4955159;28;21357;-70
2020/12/07 09:02:57;;;;;;;5.32;3.05;;;11.80;54.30;;;;;;4948300;28;20198;-73
2020/12/07 09:05:22;;;;;;;4.72;3.15;;;12.20;54.40;;;;;;5011143;28;20184;-72
2020/12/07 09:07:48;;;;;;;3.40;3.10;;;12.00;55.00;;;;;;5040360;28;20237;-72
2020/12/07 09:10:14;;;;;;;4.95;3.58;;;12.60;52.90;;;;;;5042726;28;20780;-73
2020/12/07 09:12:39;;;;;;;3.42;3.20;;;12.90;52.90;;;;;;5046939;28;21253;-70
2020/12/07 09:15:05;;;;;;;4.00;3.30;;;13.80;51.00;;;;;;5040267;28;20295;-73
2020/12/07 09:17:30;;;;;;;4.53;3.13;;;13.50;51.30;;;;;;5041745;28;20195;-72
2020/12/07 09:19:56;;;;;;;3.53;3.25;;;13.80;50.20;;;;;;5052988;28;20203;-73
2020/12/07 09:22:22;;;;;;;4.38;3.60;;;13.60;51.00;;;;;;5044214;28;20193;-71
2020/12/07 09:24:47;;;;;;;3.83;3.53;;;14.00;50.10;;;;;;5042242;28;20190;-71
2020/12/07 09:27:13;;;;;;;5.30;3.42;;;14.30;49.30;;;;;;5046292;28;20230;-71
2020/12/07 09:29:40;;;;;;;3.30;3.00;;;14.40;49.70;;;;;;5045030;28;20226;-71
2020/12/07 09:32:05;;;;;;;2.97;2.78;;;14.90;47.30;;;;;;5049809;28;20180;-71
2020/12/07 09:34:31;;;;;;;4.70;2.90;;;14.60;47.60;;;;;;5043915;28;20202;-71
2020/12/07 09:36:56;;;;;;;3.35;3.00;;;15.00;47.00;;;;;;5042291;28;20212;-71
2020/12/07 09:39:22;;;;;;;3.55;3.05;;;15.30;46.90;;;;;;5052360;28;20203;-71
2020/12/07 09:41:47;;;;;;;3.28;2.63;;;15.10;46.50;;;;;;5039251;28;20279;-72
2020/12/07 09:44:14;;;;;;;2.83;2.55;;;15.90;45.40;;;;;;5049188;28;20192;-71
2020/12/07 09:46:39;;;;;;;2.67;2.47;;;16.30;43.60;;;;;;5034617;28;20180;-71
2020/12/07 09:49:05;;;;;;;3.35;2.90;;;14.90;46.20;;;;;;5045932;28;20191;-71
2020/12/07 09:51:30;;;;;;;3.08;2.88;;;14.80;46.40;;;;;;5049078;28;20675;-72
2020/12/07 09:53:56;;;;;;;2.30;2.20;;;14.30;47.00;;;;;;5040242;28;20188;-71
2020/12/07 09:56:24;;;;;;;2.97;2.65;;;15.10;46.10;;;;;;5047735;28;20934;-71
2020/12/07 09:58:50;;;;;;;2.60;2.40;;;14.30;46.70;;;;;;5039944;28;20557;-71
2020/12/07 10:01:16;;;;;;;3.40;3.10;;;14.70;46.30;;;;;;5047320;28;20172;-71
2020/12/07 10:03:41;;;;;;;3.70;3.30;;;14.50;46.60;;;;;;5042571;28;20179;-71
2020/12/07 10:06:07;;;;;;;2.92;2.72;;;15.30;45.40;;;;;;5044606;28;20180;-71
2020/12/07 10:08:33;;;;;;;3.22;3.03;;;15.70;45.40;;;;;;5045290;28;20202;-71
2020/12/07 10:10:58;;;;;;;2.97;2.78;;;16.20;43.80;;;;;;5042764;28;20429;-71
2020/12/07 10:13:24;;;;;;;3.20;2.45;;;16.40;42.10;;;;;;5035736;28;20200;-71
2020/12/07 10:15:49;;;;;;;2.70;2.50;;;16.50;42.70;;;;;;5043571;28;20211;-71
2020/12/07 10:18:15;;;;;;;5.93;5.40;;;16.40;42.20;;;;;;5039221;28;20208;-71
2020/12/07 10:20:41;;;;;;;2.78;2.42;;;15.80;43.00;;;;;;5039311;28;20188;-71
2020/12/07 10:23:06;;;;;;;3.70;3.00;;;15.50;44.10;;;;;;5045628;28;20203;-71
2020/12/07 10:25:32;;;;;;;4.05;3.65;;;15.60;43.70;;;;;;5043459;28;20203;-71
2020/12/07 10:27:57;;;;;;;2.90;2.70;;;15.90;42.90;;;;;;5044759;28;20202;-71
2020/12/07 10:30:23;;;;;;;3.47;2.78;;;16.00;44.20;;;;;;5045068;28;20229;-72
2020/12/07 10:32:49;;;;;;;2.53;2.33;;;15.60;43.70;;;;;;5048637;28;20179;-70
2020/12/07 10:35:15;;;;;;;2.55;2.35;;;14.50;45.30;;;;;;5036396;28;20686;-70
2020/12/07 10:37:40;;;;;;;2.95;2.75;;;14.90;45.60;;;;;;5047615;28;20229;-70
2020/12/07 10:40:06;;;;;;;2.85;2.65;;;14.70;45.20;;;;;;5027843;28;20815;-70
2020/12/07 10:42:32;;;;;;;3.88;3.00;;;13.40;48.40;;;;;;5041345;28;20230;-72
2020/12/07 10:44:57;;;;;;;3.70;3.40;;;12.60;50.90;;;;;;5047864;28;20190;-72
2020/12/07 10:47:23;;;;;;;13.25;11.50;;;11.90;52.90;;;;;;5038827;28;20192;-70
2020/12/07 10:49:49;;;;;;;3.70;3.40;;;11.20;53.30;;;;;;5041952;28;20207;-70
2020/12/07 10:52:14;;;;;;;7.93;7.07;;;10.40;54.90;;;;;;5046979;28;20180;-72
2020/12/07 10:54:40;;;;;;;4.65;4.25;;;9.60;58.30;;;;;;5043016;28;20196;-70
2020/12/07 10:57:06;;;;;;;4.57;3.65;;;9.10;60.80;;;;;;5042366;28;20184;-72
2020/12/07 10:59:32;;;;;;;4.30;4.00;;;8.80;62.30;;;;;;5041131;28;20293;-72
2020/12/07 11:01:58;;;;;;;4.83;4.43;;;8.50;64.60;;;;;;5043379;28;20179;-72
2020/12/07 11:04:23;;;;;;;5.97;5.37;;;8.20;67.20;;;;;;5039833;28;20188;-72
2020/12/07 11:06:51;;;;;;;5.10;4.67;;;7.70;70.50;;;;;;5036961;28;20188;-72
2020/12/07 11:09:23;;;;;;;5.60;4.63;;;7.50;72.50;;;;;;5033158;28;20208;-72
2020/12/07 11:11:49;;;;;;;4.37;4.07;;;7.30;74.10;;;;;;5026502;28;20686;-72
2020/12/07 11:14:15;;;;;;;5.13;4.63;;;7.10;75.50;;;;;;5037821;28;20298;-72
2020/12/07 11:16:41;;;;;;;5.73;4.37;;;6.80;79.40;;;;;;5039040;28;20607;-72
2020/12/07 11:19:06;;;;;;;5.23;4.73;;;6.70;80.30;;;;;;5038631;28;20278;-72
2020/12/07 11:21:32;;;;;;;5.50;5.00;;;6.60;80.80;;;;;;5039281;28;20184;-72
2020/12/07 11:23:57;;;;;;;8.13;7.33;;;6.30;83.80;;;;;;5042112;28;20231;-73
2020/12/07 11:26:23;;;;;;;5.40;4.90;;;6.20;84.00;;;;;;5044185;28;20684;-72
2020/12/07 11:28:49;;;;;;;6.63;6.03;;;5.90;86.20;;;;;;5037576;28;20253;-73
2020/12/07 11:31:16;;;;;;;7.83;7.00;;;5.90;85.80;;;;;;5040240;28;20205;-72
2020/12/07 11:33:43;;;;;;;5.47;5.07;;;5.80;87.50;;;;;;5045406;28;20607;-72
2020/12/07 11:36:08;;;;;;;5.03;4.63;;;5.60;89.40;;;;;;5046916;28;20214;-72
2020/12/07 11:38:42;;;;;;;4.63;4.23;;;5.60;90.00;;;;;;5045225;28;20209;-73
2020/12/07 11:46:31;;;;;;;4.67;4.27;;;5.50;90.60;;;;;;5042691;28;20543;-72
2020/12/07 11:48:57;;;;;;;13.07;8.67;;;5.50;90.30;;;;;;5038354;28;20731;-73
2020/12/07 11:51:24;;;;;;;10.27;6.67;;;5.50;90.80;;;;;;5024945;28;20190;-72
2020/12/07 11:53:52;;;;;;;28.97;16.40;;;5.30;91.30;;;;;;5044313;28;20733;-72
2020/12/07 11:56:25;;;;;;;6.53;5.80;;;5.30;92.00;;;;;;5037876;28;20207;-72
2020/12/07 11:58:51;;;;;;;4.87;4.47;;;5.30;91.90;;;;;;5026829;28;20865;-72
2020/12/07 12:01:16;;;;;;;14.20;9.03;;;5.30;92.00;;;;;;5040754;28;20180;-72
2020/12/07 12:03:42;;;;;;;13.57;8.97;;;5.30;91.80;;;;;;5030862;28;20187;-72
2020/12/07 12:06:07;;;;;;;28.90;17.03;;;5.30;92.20;;;;;;5049624;28;20201;-72
2020/12/07 12:08:33;;;;;;;11.60;8.73;;;5.30;92.20;;;;;;5035730;28;20234;-72
2020/12/07 12:10:59;;;;;;;10.00;6.83;;;5.20;92.00;;;;;;5042706;28;20191;-71
2020/12/07 12:13:25;;;;;;;24.53;15.07;;;5.10;91.80;;;;;;5044404;28;20190;-72
2020/12/07 12:15:51;;;;;;;21.03;13.20;;;5.00;92.20;;;;;;5045289;28;20208;-73
2020/12/07 12:18:17;;;;;;;9.17;6.43;;;5.00;92.70;;;;;;5043672;28;20206;-70
2020/12/07 12:20:46;;;;;;;7.77;5.53;;;5.10;92.60;;;;;;5043487;28;20183;-70
2020/12/07 12:23:12;;;;;;;3.77;3.47;;;5.00;92.20;;;;;;5043652;28;20189;-70
2020/12/07 12:25:41;;;;;;;8.43;7.53;;;5.00;92.30;;;;;;5043801;28;20191;-70
2020/12/07 12:28:07;;;;;;;4.90;4.50;;;5.00;93.10;;;;;;5043132;28;20244;-69
2020/12/07 12:30:33;;;;;;;6.33;5.73;;;5.00;93.70;;;;;;5044838;28;20186;-70
2020/12/07 12:32:58;;;;;;;6.40;5.73;;;5.10;93.90;;;;;;5044329;28;20563;-71
2020/12/07 12:35:25;;;;;;;5.20;4.80;;;5.00;93.20;;;;;;5026318;28;20222;-71
2020/12/07 12:37:51;;;;;;;5.03;4.53;;;5.00;93.10;;;;;;5041975;28;20320;-71
2020/12/07 12:40:17;;;;;;;4.90;4.50;;;5.00;93.00;;;;;;5043931;28;20711;-71
2020/12/07 12:42:42;;;;;;;4.10;3.80;;;5.00;92.90;;;;;;5043712;28;20199;-72
2020/12/07 12:45:08;;;;;;;5.90;5.40;;;5.10;92.40;;;;;;5044387;28;20193;-72
2020/12/07 12:47:34;;;;;;;5.77;5.17;;;5.10;92.40;;;;;;5047002;28;20193;-72
2020/12/07 12:49:59;;;;;;;4.83;4.43;;;5.20;92.40;;;;;;5042340;28;20211;-71
2020/12/07 12:52:25;;;;;;;4.77;4.37;;;5.10;92.40;;;;;;5047203;28;20186;-71
2020/12/07 12:54:50;;;;;;;4.00;3.70;;;5.10;92.20;;;;;;5048087;28;20220;-70
2020/12/07 12:57:16;;;;;;;4.40;4.00;;;5.10;93.00;;;;;;5046573;28;20183;-70
2020/12/07 12:59:41;;;;;;;6.17;4.13;;;5.10;92.90;;;;;;5047430;28;20242;-70
2020/12/07 13:02:07;;;;;;;4.30;3.90;;;5.20;91.90;;;;;;5044281;28;20242;-71
2020/12/07 13:04:33;;;;;;;4.57;4.07;;;5.10;91.70;;;;;;5042080;28;20659;-70
2020/12/07 13:06:58;;;;;;;3.90;3.60;;;5.20;92.60;;;;;;5046849;28;20206;-70
2020/12/07 13:09:25;;;;;;;4.20;3.83;;;5.40;91.50;;;;;;5048341;28;20218;-70
2020/12/07 13:11:51;;;;;;;4.00;3.30;;;5.60;91.30;;;;;;5025699;28;20202;-71
2020/12/07 13:14:17;;;;;;;4.23;3.83;;;5.80;90.40;;;;;;5040574;28;20852;-71
2020/12/07 13:16:54;;;;;;;3.70;3.40;;;5.90;90.10;;;;;;5045733;28;20195;-71
2020/12/07 13:19:20;;;;;;;3.53;3.30;;;5.90;90.40;;;;;;5033225;28;20206;-71
2020/12/07 13:21:57;;;;;;;3.63;3.30;;;5.90;90.80;;;;;;5037365;28;20183;-71
2020/12/07 13:24:36;;;;;;;3.40;3.10;;;5.80;90.60;;;;;;5044721;28;20198;-71
2020/12/07 13:29:46;;;;;;;4.90;4.43;;;5.80;89.20;;;;;;5048133;28;20227;-71